createdAt,value
2022-12-25T00:00:37.458Z,3.77
2022-12-25T00:03:06.274Z,3.83
2022-12-25T00:05:35.356Z,4.20
2022-12-25T00:08:03.684Z,4.00
2022-12-25T00:10:33.653Z,4.23
2022-12-25T00:13:02.543Z,4.00
2022-12-25T00:15:30.877Z,3.80
2022-12-25T00:17:59.759Z,3.83
2022-12-25T00:20:28.131Z,4.00
2022-12-25T00:22:57.851Z,4.40
2022-12-25T00:25:26.657Z,3.40
2022-12-25T00:27:56.350Z,4.50
2022-12-25T00:30:25.555Z,4.63
2022-12-25T00:32:53.909Z,4.93
2022-12-25T00:35:23.194Z,4.77
2022-12-25T00:37:51.955Z,5.83
2022-12-25T00:40:20.329Z,4.80
2022-12-25T00:42:52.508Z,4.17
2022-12-25T00:45:22.270Z,6.23
2022-12-25T00:47:51.135Z,5.07
2022-12-25T00:50:20.204Z,5.00
2022-12-25T00:52:48.528Z,5.43
2022-12-25T00:55:17.090Z,6.00
2022-12-25T00:57:45.398Z,9.02
2022-12-25T01:00:15.822Z,6.20
2022-12-25T01:02:45.626Z,5.53
2022-12-25T01:05:15.049Z,4.97
2022-12-25T01:07:43.832Z,5.10
2022-12-25T01:10:23.708Z,4.80
2022-12-25T01:12:53.320Z,4.50
2022-12-25T01:15:22.215Z,4.00
2022-12-25T01:17:51.919Z,4.30
2022-12-25T01:20:20.860Z,4.00
2022-12-25T01:22:49.219Z,4.20
2022-12-25T01:25:17.785Z,3.90
2022-12-25T01:27:46.670Z,3.53
2022-12-25T01:30:15.178Z,3.97
2022-12-25T01:32:44.477Z,3.80
2022-12-25T01:35:14.191Z,3.80
2022-12-25T01:37:42.789Z,4.13
2022-12-25T01:40:12.002Z,3.70
2022-12-25T01:42:40.365Z,4.27
2022-12-25T01:45:37.375Z,4.03
2022-12-25T01:48:10.771Z,4.60
2022-12-25T01:50:44.178Z,5.33
2022-12-25T01:53:13.138Z,4.67
2022-12-25T01:55:45.296Z,4.50
2022-12-25T01:58:14.369Z,4.50
2022-12-25T02:00:43.175Z,5.10
2022-12-25T02:03:12.198Z,4.10
2022-12-25T02:05:42.059Z,4.90
2022-12-25T02:08:13.641Z,4.60
2022-12-25T02:10:44.655Z,4.50
2022-12-25T02:13:16.030Z,4.43
2022-12-25T02:15:52.694Z,4.80
2022-12-25T02:18:34.991Z,4.57
2022-12-25T02:21:25.143Z,4.53
2022-12-25T02:24:11.058Z,4.27
2022-12-25T02:26:56.684Z,4.23
2022-12-25T02:29:34.079Z,3.77
2022-12-25T02:32:09.292Z,3.73
2022-12-25T02:34:45.180Z,3.47
2022-12-25T02:37:19.042Z,3.57
2022-12-25T02:40:00.377Z,3.77
2022-12-25T02:42:54.459Z,4.17
2022-12-25T02:45:47.345Z,5.33
2022-12-25T02:48:36.159Z,4.07
2022-12-25T02:51:26.255Z,4.37
2022-12-25T02:54:16.108Z,4.60
2022-12-25T02:57:05.341Z,4.43
2022-12-25T02:59:56.234Z,4.43
2022-12-25T03:02:45.566Z,4.30
2022-12-25T03:05:35.834Z,4.20
2022-12-25T03:08:09.437Z,3.80
2022-12-25T03:10:58.809Z,3.90
2022-12-25T03:13:34.445Z,3.90
2022-12-25T03:16:20.677Z,4.30
2022-12-25T03:18:50.407Z,4.70
2022-12-25T03:21:45.509Z,4.00
2022-12-25T03:24:31.614Z,4.10
2022-12-25T03:27:00.686Z,4.23
2022-12-25T03:29:49.927Z,15.97
2022-12-25T03:32:30.169Z,6.63
2022-12-25T03:35:23.958Z,5.80
2022-12-25T03:38:15.137Z,4.23
2022-12-25T03:41:11.960Z,4.50
2022-12-25T03:44:03.831Z,4.47
2022-12-25T03:47:06.936Z,4.77
2022-12-25T03:50:03.688Z,5.37
2022-12-25T03:52:54.299Z,5.30
2022-12-25T03:55:54.823Z,3.20
2022-12-25T03:58:43.098Z,3.37
2022-12-25T04:01:29.771Z,3.60
2022-12-25T04:04:15.945Z,3.70
2022-12-25T04:07:01.815Z,3.63
2022-12-25T04:09:49.566Z,4.10
2022-12-25T04:12:35.351Z,4.30
2022-12-25T04:15:21.445Z,3.87
2022-12-25T04:18:10.889Z,4.10
2022-12-25T04:20:56.651Z,3.87
2022-12-25T04:23:42.669Z,3.80
2022-12-25T04:26:30.409Z,4.10
2022-12-25T04:29:16.342Z,4.17
2022-12-25T04:32:02.788Z,4.03
2022-12-25T04:34:49.035Z,3.97
2022-12-25T04:37:18.374Z,4.60
2022-12-25T04:39:46.892Z,4.10
2022-12-25T04:42:17.264Z,4.20
2022-12-25T04:44:45.579Z,4.10
2022-12-25T04:47:14.369Z,4.20
2022-12-25T04:49:43.110Z,4.77
2022-12-25T04:52:11.422Z,4.40
2022-12-25T04:54:40.751Z,4.63
2022-12-25T04:57:09.077Z,4.70
2022-12-25T04:59:38.715Z,4.37
2022-12-25T05:02:08.094Z,5.07
2022-12-25T05:04:36.924Z,4.20
2022-12-25T05:07:05.243Z,4.20
2022-12-25T05:09:33.599Z,4.63
2022-12-25T05:12:03.062Z,3.93
2022-12-25T05:14:31.890Z,4.73
2022-12-25T05:17:01.779Z,5.23
2022-12-25T05:19:30.579Z,4.60
2022-12-25T05:21:59.662Z,4.00
2022-12-25T05:24:28.808Z,4.00
2022-12-25T05:26:58.081Z,4.47
2022-12-25T05:29:27.015Z,4.47
2022-12-25T05:31:55.307Z,4.83
2022-12-25T05:34:25.923Z,4.73
2022-12-25T05:36:54.266Z,5.33
2022-12-25T05:39:22.817Z,4.90
2022-12-25T05:41:52.040Z,6.70
2022-12-25T05:44:20.813Z,5.90
2022-12-25T05:46:49.821Z,4.57
2022-12-25T05:49:18.179Z,3.20
2022-12-25T05:51:48.524Z,4.87
2022-12-25T05:54:16.967Z,4.33
2022-12-25T05:56:45.293Z,4.27
2022-12-25T05:59:13.604Z,4.00
2022-12-25T06:01:42.436Z,3.50
2022-12-25T06:04:12.906Z,3.77
2022-12-25T06:06:42.298Z,4.70
2022-12-25T06:09:13.679Z,3.77
2022-12-25T06:11:42.465Z,4.90
2022-12-25T06:14:12.964Z,5.23
2022-12-25T06:16:41.832Z,4.37
2022-12-25T06:19:10.253Z,4.73
2022-12-25T06:21:39.265Z,4.87
2022-12-25T06:24:08.229Z,4.70
2022-12-25T06:26:38.743Z,4.87
2022-12-25T06:29:07.291Z,4.90
2022-12-25T06:31:35.639Z,4.80
2022-12-25T06:34:04.667Z,5.17
2022-12-25T06:36:33.319Z,5.70
2022-12-25T06:39:02.468Z,6.27
2022-12-25T06:41:31.529Z,6.40
2022-12-25T06:44:02.922Z,6.30
2022-12-25T06:46:32.065Z,5.20
2022-12-25T06:49:01.551Z,5.17
2022-12-25T06:51:31.493Z,5.93
2022-12-25T06:54:04.357Z,5.73
2022-12-25T06:56:34.562Z,6.40
2022-12-25T06:59:06.300Z,5.93
2022-12-25T07:01:36.931Z,6.60
2022-12-25T07:04:08.584Z,7.93
2022-12-25T07:06:36.911Z,8.50
2022-12-25T07:09:05.320Z,8.50
2022-12-25T07:11:34.102Z,6.80
2022-12-25T07:14:04.420Z,10.23
2022-12-25T07:16:33.702Z,7.80
2022-12-25T07:19:02.414Z,8.73
2022-12-25T07:21:30.701Z,7.53
2022-12-25T07:23:59.835Z,8.13
2022-12-25T07:26:28.198Z,9.43
2022-12-25T07:28:57.811Z,8.57
2022-12-25T07:31:27.530Z,8.70
2022-12-25T07:33:56.865Z,8.37
2022-12-25T07:36:25.181Z,9.23
2022-12-25T07:38:53.592Z,8.70
2022-12-25T07:41:24.441Z,9.47
2022-12-25T07:44:00.101Z,8.43
2022-12-25T07:46:29.844Z,9.40
2022-12-25T07:48:58.731Z,8.47
2022-12-25T07:51:30.065Z,7.63
2022-12-25T07:53:59.259Z,8.60
2022-12-25T07:56:28.297Z,8.57
2022-12-25T07:58:56.670Z,8.30
2022-12-25T08:01:27.742Z,9.37
2022-12-25T08:03:59.326Z,10.00
2022-12-25T08:06:31.090Z,8.90
2022-12-25T08:09:05.084Z,7.90
2022-12-25T08:11:34.896Z,8.30
2022-12-25T08:14:06.196Z,8.80
2022-12-25T08:16:34.836Z,9.23
2022-12-25T08:19:04.974Z,10.63
2022-12-25T08:21:33.272Z,10.70
2022-12-25T08:24:05.662Z,11.13
2022-12-25T08:26:34.523Z,9.90
2022-12-25T08:29:03.226Z,8.50
2022-12-25T08:31:33.447Z,7.47
2022-12-25T08:34:05.099Z,5.77
2022-12-25T08:36:33.481Z,6.37
2022-12-25T08:39:03.573Z,6.70
2022-12-25T08:41:32.304Z,7.33
2022-12-25T08:44:01.489Z,10.30
2022-12-25T08:46:30.056Z,8.50
2022-12-25T08:48:59.197Z,8.97
2022-12-25T08:51:29.323Z,10.43
2022-12-25T08:54:00.922Z,12.00
2022-12-25T08:56:30.758Z,9.60
2022-12-25T08:58:59.121Z,8.77
2022-12-25T09:01:27.943Z,7.30
2022-12-25T09:03:56.357Z,7.30
2022-12-25T09:06:25.211Z,5.17
2022-12-25T09:08:54.966Z,5.00
2022-12-25T09:11:24.423Z,4.57
2022-12-25T09:13:53.486Z,3.97
2022-12-25T09:16:23.298Z,4.37
2022-12-25T09:18:52.697Z,3.87
2022-12-25T09:21:21.015Z,4.23
2022-12-25T09:23:49.440Z,3.87
2022-12-25T09:26:20.594Z,3.70
2022-12-25T09:28:52.247Z,3.87
2022-12-25T09:31:22.620Z,4.43
2022-12-25T09:33:52.007Z,3.72
2022-12-25T09:36:23.709Z,3.67
2022-12-25T09:38:52.724Z,3.30
2022-12-25T09:41:30.651Z,3.87
2022-12-25T09:44:04.209Z,3.63
2022-12-25T09:46:40.925Z,4.20
2022-12-25T09:49:17.351Z,3.27
2022-12-25T09:51:48.696Z,3.75
2022-12-25T09:54:23.661Z,3.80
2022-12-25T09:56:53.712Z,3.90
2022-12-25T09:59:26.405Z,3.47
2022-12-25T10:14:59.953Z,2.95
2022-12-25T10:17:42.274Z,3.58
2022-12-25T10:20:19.542Z,2.95
2022-12-25T10:26:15.613Z,3.67
2022-12-25T11:12:32.377Z,2.40
2022-12-25T11:15:04.466Z,2.95
2022-12-25T11:17:33.362Z,2.92
2022-12-25T11:20:02.962Z,3.10
2022-12-25T11:22:31.508Z,3.03
2022-12-25T11:25:13.343Z,3.05
2022-12-25T11:27:50.290Z,3.10
2022-12-25T11:30:21.122Z,3.17
2022-12-25T11:32:56.475Z,3.00
2022-12-25T11:35:31.987Z,3.10
2022-12-25T11:38:01.606Z,3.03
2022-12-25T11:40:36.676Z,3.05
2022-12-25T11:43:14.085Z,3.50
2022-12-25T11:45:48.577Z,4.53
2022-12-25T11:48:23.180Z,3.13
2022-12-25T11:50:56.461Z,3.38
2022-12-25T11:53:30.899Z,4.53
2022-12-25T11:56:02.926Z,2.40
2022-12-25T11:58:37.769Z,2.90
2022-12-25T12:01:10.312Z,2.80
2022-12-25T12:03:42.154Z,2.17
2022-12-25T12:06:21.945Z,2.60
2022-12-25T12:08:57.039Z,2.30
2022-12-25T12:11:33.699Z,2.17
2022-12-25T12:14:18.497Z,2.40
2022-12-25T12:16:47.512Z,2.15
2022-12-25T12:19:27.055Z,1.98
2022-12-25T12:21:58.231Z,2.70
2022-12-25T12:24:31.023Z,2.33
2022-12-25T12:27:05.125Z,2.08
2022-12-25T12:29:41.695Z,2.20
2022-12-25T12:32:38.590Z,1.77
2022-12-25T12:35:10.312Z,1.88
2022-12-25T12:37:42.085Z,2.00
2022-12-25T12:40:30.302Z,1.80
2022-12-25T12:42:58.833Z,2.03
2022-12-25T12:45:32.427Z,1.80
2022-12-25T12:48:01.133Z,2.25
2022-12-25T12:50:36.779Z,1.92
2022-12-25T12:53:29.942Z,2.08
2022-12-25T12:56:09.722Z,1.83
2022-12-25T12:58:45.642Z,2.10
2022-12-25T13:01:30.923Z,1.63
2022-12-25T13:04:20.298Z,1.70
2022-12-25T13:06:54.960Z,1.60
2022-12-25T13:09:36.849Z,1.80
2022-12-25T13:12:08.220Z,1.90
2022-12-25T13:14:38.497Z,1.95
2022-12-25T13:17:09.625Z,1.60
2022-12-25T13:19:39.825Z,2.00
2022-12-25T13:22:08.208Z,2.10
2022-12-25T13:24:38.879Z,1.83
2022-12-25T13:27:22.971Z,1.92
2022-12-25T13:29:51.833Z,1.60
2022-12-25T13:32:24.813Z,1.60
2022-12-25T13:34:55.406Z,1.92
2022-12-25T13:37:26.405Z,1.60
2022-12-25T13:39:59.670Z,1.65
2022-12-25T13:42:30.789Z,1.88
2022-12-25T13:45:02.166Z,2.55
2022-12-25T13:47:34.462Z,2.83
2022-12-25T13:50:15.974Z,2.80
2022-12-25T13:52:45.173Z,2.00
2022-12-25T13:55:16.207Z,2.35
2022-12-25T13:57:47.260Z,2.20
2022-12-25T14:00:20.458Z,2.70
2022-12-25T14:02:52.308Z,5.10
2022-12-25T14:05:29.438Z,2.17
2022-12-25T14:07:59.565Z,2.25
2022-12-25T14:10:31.653Z,3.25
2022-12-25T14:13:03.666Z,2.60
2022-12-25T14:15:36.390Z,3.08
2022-12-25T14:18:06.611Z,2.33
2022-12-25T14:20:41.049Z,2.10
2022-12-25T14:23:17.055Z,1.98
2022-12-25T14:25:48.004Z,2.17
2022-12-25T14:28:22.262Z,2.10
2022-12-25T14:30:50.889Z,2.38
2022-12-25T14:33:24.586Z,2.20
2022-12-25T14:35:54.342Z,2.03
2022-12-25T14:38:25.311Z,2.30
2022-12-25T14:41:00.574Z,1.90
2022-12-25T14:43:30.003Z,2.30
2022-12-25T14:46:00.275Z,2.10
2022-12-25T14:48:32.670Z,2.05
2022-12-25T14:51:04.252Z,2.47
2022-12-25T14:53:38.611Z,2.13
2022-12-25T14:56:09.601Z,2.00
2022-12-25T14:58:42.557Z,1.83
2022-12-25T15:01:22.675Z,2.88
2022-12-25T15:03:52.468Z,1.88
2022-12-25T15:06:24.826Z,2.22
2022-12-25T15:08:57.978Z,1.73
2022-12-25T15:11:26.696Z,1.85
2022-12-25T15:13:55.124Z,2.95
2022-12-25T15:16:26.026Z,2.50
2022-12-25T15:18:56.804Z,7.22
2022-12-25T15:21:28.564Z,5.38
2022-12-25T15:24:00.024Z,3.47
2022-12-25T15:26:30.602Z,2.40
2022-12-25T15:28:59.185Z,2.13
2022-12-25T15:31:30.251Z,2.40
2022-12-25T15:34:02.716Z,2.08
2022-12-25T15:36:31.703Z,1.92
2022-12-25T15:39:00.215Z,1.80
2022-12-25T15:41:49.238Z,2.10
2022-12-25T15:44:18.037Z,1.92
2022-12-25T15:46:47.978Z,2.05
2022-12-25T15:49:18.649Z,2.17
2022-12-25T15:51:48.025Z,2.20
2022-12-25T15:54:16.996Z,2.28
2022-12-25T15:56:47.791Z,2.10
2022-12-25T15:59:18.680Z,2.30
2022-12-25T16:30:53.753Z,3.10
2022-12-25T16:35:03.178Z,3.17
2022-12-25T16:43:01.734Z,3.08
2022-12-25T16:45:49.955Z,3.40
2022-12-25T16:48:19.602Z,5.63
2022-12-25T16:50:48.005Z,4.97
2022-12-25T16:53:17.067Z,2.60
2022-12-25T16:55:45.910Z,3.10
2022-12-25T16:58:18.004Z,3.10
2022-12-25T17:01:01.146Z,2.92
2022-12-25T17:03:32.711Z,3.70
2022-12-25T17:06:07.173Z,3.28
2022-12-25T17:08:38.344Z,3.40
2022-12-25T17:11:15.703Z,3.30
2022-12-25T17:13:52.944Z,4.57
2022-12-25T17:16:27.375Z,7.22
2022-12-25T17:19:01.748Z,23.65
2022-12-25T17:21:48.392Z,12.20
2022-12-25T17:24:25.007Z,7.13
2022-12-25T17:26:57.293Z,6.30
2022-12-25T17:29:32.357Z,6.60
2022-12-25T17:32:05.651Z,7.90
2022-12-25T17:34:35.290Z,8.38
2022-12-25T17:37:07.125Z,6.75
2022-12-25T17:39:40.262Z,22.92
2022-12-25T17:42:09.443Z,12.25
2022-12-25T17:44:41.130Z,9.82
2022-12-25T17:47:10.101Z,9.38
2022-12-25T17:49:38.458Z,10.55
2022-12-25T17:52:06.876Z,7.45
2022-12-25T17:54:39.127Z,5.15
2022-12-25T17:57:07.541Z,7.63
2022-12-25T17:59:36.053Z,6.28
2022-12-25T18:02:06.239Z,6.28
2022-12-25T18:04:36.081Z,5.85
2022-12-25T18:07:10.674Z,7.32
2022-12-25T18:09:40.356Z,6.32
2022-12-25T18:12:10.025Z,5.22
2022-12-25T18:14:44.031Z,5.43
2022-12-25T18:17:25.428Z,11.70
2022-12-25T18:19:56.938Z,7.13
2022-12-25T18:22:26.356Z,7.93
2022-12-25T18:24:56.454Z,13.20
2022-12-25T18:27:25.839Z,7.45
2022-12-25T18:29:54.615Z,6.38
2022-12-25T18:32:27.975Z,6.30
2022-12-25T18:34:57.166Z,6.20
2022-12-25T18:37:27.072Z,10.15
2022-12-25T18:39:55.374Z,7.50
2022-12-25T18:42:43.824Z,8.20
2022-12-25T18:45:14.333Z,6.33
2022-12-25T18:47:44.094Z,9.80
2022-12-25T18:50:13.172Z,8.53
2022-12-25T18:52:49.506Z,8.10
2022-12-25T18:55:20.659Z,7.57
2022-12-25T18:57:49.656Z,10.17
2022-12-25T19:00:19.063Z,11.73
2022-12-25T19:02:49.636Z,9.13
2022-12-25T19:05:18.908Z,6.90
2022-12-25T19:07:47.328Z,7.27
2022-12-25T19:10:15.642Z,8.03
2022-12-25T19:12:44.645Z,7.10
2022-12-25T19:15:13.321Z,6.63
2022-12-25T19:17:41.860Z,7.13
2022-12-25T19:20:13.291Z,18.33
2022-12-25T19:22:41.829Z,15.83
2022-12-25T19:25:11.328Z,7.45
2022-12-25T19:27:41.320Z,7.85
2022-12-25T19:30:12.078Z,12.60
2022-12-25T19:32:40.421Z,12.47
2022-12-25T19:35:11.171Z,12.27
2022-12-25T19:37:39.686Z,8.63
2022-12-25T19:40:09.632Z,7.60
2022-12-25T19:42:38.001Z,8.63
2022-12-25T19:45:07.712Z,14.37
2022-12-25T19:47:36.215Z,11.27
2022-12-25T19:50:04.839Z,7.88
2022-12-25T19:52:35.244Z,11.63
2022-12-25T19:55:03.599Z,6.37
2022-12-25T19:57:32.000Z,7.70
2022-12-25T20:00:00.830Z,6.80
2022-12-25T20:02:29.343Z,7.00
2022-12-25T20:04:58.776Z,6.07
2022-12-25T20:07:27.398Z,6.30
2022-12-25T20:09:57.094Z,8.50
2022-12-25T20:12:25.989Z,8.20
2022-12-25T20:14:54.358Z,7.90
2022-12-25T20:17:22.678Z,7.37
2022-12-25T20:19:51.377Z,5.97
2022-12-25T20:22:19.743Z,6.68
2022-12-25T20:24:49.303Z,7.67
2022-12-25T20:27:19.038Z,6.82
2022-12-25T20:29:48.216Z,6.23
2022-12-25T20:32:16.812Z,5.03
2022-12-25T20:34:45.161Z,5.23
2022-12-25T20:37:13.909Z,5.87
2022-12-25T20:39:42.583Z,5.30
2022-12-25T20:42:10.934Z,5.60
2022-12-25T20:44:40.826Z,5.70
2022-12-25T20:47:09.224Z,6.97
2022-12-25T20:49:38.028Z,6.17
2022-12-25T20:52:06.703Z,6.37
2022-12-25T20:54:35.617Z,8.20
2022-12-25T20:57:04.104Z,6.47
2022-12-25T20:59:37.476Z,5.97
2022-12-25T21:02:08.032Z,4.77
2022-12-25T21:04:36.533Z,4.90
2022-12-25T21:07:06.377Z,5.30
2022-12-25T21:09:35.045Z,4.70
2022-12-25T21:12:03.877Z,4.80
2022-12-25T21:14:32.818Z,5.13
2022-12-25T21:17:01.989Z,4.40
2022-12-25T21:19:31.911Z,4.40
2022-12-25T21:22:00.823Z,4.33
2022-12-25T21:24:29.218Z,3.73
2022-12-25T21:26:58.333Z,3.80
2022-12-25T21:29:26.764Z,3.87
2022-12-25T21:32:13.177Z,3.87
2022-12-25T21:34:43.165Z,4.03
2022-12-25T21:37:11.500Z,3.57
2022-12-25T21:39:40.906Z,3.87
2022-12-25T21:42:09.244Z,3.77
2022-12-25T21:44:37.720Z,4.10
2022-12-25T21:47:06.132Z,4.30
2022-12-25T21:49:53.122Z,4.30
2022-12-25T21:52:23.521Z,4.50
2022-12-25T21:54:53.305Z,4.07
2022-12-25T21:57:21.633Z,3.57
2022-12-25T21:59:50.309Z,4.10
2022-12-25T22:02:18.883Z,3.77
2022-12-25T22:04:48.127Z,3.70
2022-12-25T22:07:18.584Z,3.70
2022-12-25T22:09:50.107Z,3.67
2022-12-25T22:12:38.766Z,3.50
2022-12-25T22:15:10.115Z,3.17
2022-12-25T22:17:58.127Z,3.97
2022-12-25T22:20:28.362Z,3.67
2022-12-25T22:22:57.665Z,3.30
2022-12-25T22:25:27.512Z,3.27
2022-12-25T22:27:57.296Z,3.70
2022-12-25T22:30:28.332Z,4.07
2022-12-25T22:32:57.669Z,3.40
2022-12-25T22:35:26.363Z,3.23
2022-12-25T22:37:55.564Z,3.93
2022-12-25T22:40:23.990Z,3.40
2022-12-25T22:42:56.927Z,3.50
2022-12-25T22:45:25.749Z,3.30
2022-12-25T22:47:54.361Z,3.60
2022-12-25T22:50:23.002Z,3.67
2022-12-25T22:52:52.191Z,2.97
2022-12-25T22:55:21.263Z,4.00
2022-12-25T22:57:50.779Z,2.90
2022-12-25T23:00:20.604Z,3.10
2022-12-25T23:02:50.302Z,3.47
2022-12-25T23:05:19.070Z,3.20
2022-12-25T23:07:47.417Z,3.10
2022-12-25T23:10:16.042Z,3.67
2022-12-25T23:13:01.966Z,4.80
2022-12-25T23:15:32.868Z,4.60
2022-12-25T23:18:18.796Z,3.97
2022-12-25T23:21:05.583Z,4.00
2022-12-25T23:23:51.333Z,4.73
2022-12-25T23:26:22.332Z,3.73
2022-12-25T23:29:08.909Z,3.20
2022-12-25T23:31:42.079Z,3.90
2022-12-25T23:34:11.139Z,3.00
2022-12-25T23:36:40.650Z,2.90
2022-12-25T23:39:10.662Z,3.23
2022-12-25T23:41:39.611Z,3.27
2022-12-25T23:44:08.585Z,3.07
2022-12-25T23:46:38.608Z,2.80
2022-12-25T23:49:08.092Z,2.67
2022-12-25T23:51:37.542Z,3.17
2022-12-25T23:54:07.363Z,3.00
2022-12-25T23:56:35.798Z,2.80
2022-12-25T23:59:04.256Z,3.00
